Time;durP1;ratioP1;P1;durP2;ratioP2;P2;SDS_P1;SDS_P2;PMS_P1;PMS_P2;Temp;Humidity;BMP_temperature;BMP_pressure;BME280_temperature;BME280_humidity;BME280_pressure;Samples;Min_cycle;Max_cycle;Signal;HPM_P1;HPM_P2
2024/02/25 00:00:04;;;;;;;3.70;1.38;;;;;;;4.40;92.42;99130.16;5044789;28;20025;-65
2024/02/25 00:02:30;;;;;;;7.88;1.58;;;;;;;4.36;92.57;99133.59;5044692;28;20048;-65
2024/02/25 00:04:56;;;;;;;2.95;2.03;;;;;;;4.41;92.37;99142.97;5044919;28;20045;-65
2024/02/25 00:07:21;;;;;;;1.92;1.25;;;;;;;4.32;92.61;99128.47;5046980;28;20022;-65
2024/02/25 00:09:47;;;;;;;3.15;1.67;;;;;;;4.36;92.69;99138.72;5048559;28;20025;-65
2024/02/25 00:12:12;;;;;;;0.95;0.93;;;;;;;4.39;92.44;99137.03;5048678;28;20168;-65
2024/02/25 00:14:37;;;;;;;1.83;1.73;;;;;;;4.39;92.56;99139.59;5048461;28;20013;-65
2024/02/25 00:17:03;;;;;;;1.10;1.00;;;;;;;4.33;92.35;99131.88;5047113;28;20124;-65
2024/02/25 00:19:29;;;;;;;1.48;1.33;;;;;;;4.32;92.65;99137.88;5047328;28;20389;-64
2024/02/25 00:21:55;;;;;;;1.50;1.40;;;;;;;4.29;93.21;99137.91;5048417;28;20021;-64
2024/02/25 00:24:22;;;;;;;3.20;2.97;;;;;;;4.27;93.10;99132.75;5048471;28;20054;-65
2024/02/25 00:26:50;;;;;;;3.38;2.55;;;;;;;4.31;93.04;99138.75;5048167;28;20022;-65
2024/02/25 00:29:15;;;;;;;4.60;2.28;;;;;;;4.26;93.33;99133.63;5046955;28;20021;-65
2024/02/25 00:31:44;;;;;;;1.50;1.40;;;;;;;4.32;93.57;99135.31;5048258;28;20025;-65
2024/02/25 00:34:09;;;;;;;1.92;1.70;;;;;;;4.36;93.50;99134.44;5048163;28;20025;-65
2024/02/25 00:36:35;;;;;;;6.45;2.78;;;;;;;4.43;93.57;99143.84;5047988;28;20029;-65
2024/02/25 00:39:02;;;;;;;2.08;1.70;;;;;;;4.49;93.31;99139.56;5048269;28;20026;-64
2024/02/25 00:41:28;;;;;;;4.43;2.65;;;;;;;4.50;93.18;99147.25;5047978;28;20040;-64
2024/02/25 00:43:53;;;;;;;2.28;1.70;;;;;;;4.54;93.13;99143.81;5047939;28;20025;-64
2024/02/25 00:46:18;;;;;;;2.47;2.33;;;;;;;4.56;92.78;99143.78;5046529;28;20083;-64
2024/02/25 00:48:44;;;;;;;4.35;2.78;;;;;;;4.55;92.46;99131.81;5047921;28;20099;-65
2024/02/25 00:51:09;;;;;;;2.42;2.17;;;;;;;4.52;92.01;99134.41;5047899;28;20029;-64
2024/02/25 00:53:35;;;;;;;1.58;1.48;;;;;;;4.49;92.64;99145.53;5046440;28;20023;-64
2024/02/25 00:56:02;;;;;;;1.75;1.40;;;;;;;4.50;92.69;99146.38;5047288;28;20490;-65
2024/02/25 00:58:27;;;;;;;3.55;2.70;;;;;;;4.46;93.04;99142.97;5046284;28;20032;-65
2024/02/25 01:00:53;;;;;;;2.83;2.58;;;;;;;4.50;93.06;99144.69;5047846;28;20029;-65
2024/02/25 01:03:18;;;;;;;3.72;2.88;;;;;;;4.55;93.00;99150.63;5047440;28;20098;-65
2024/02/25 01:05:43;;;;;;;2.50;1.60;;;;;;;4.56;92.31;99151.50;5047480;28;20079;-65
2024/02/25 01:08:09;;;;;;;7.80;2.53;;;;;;;4.52;91.99;99150.66;5047648;28;20022;-65
2024/02/25 01:10:34;;;;;;;1.77;1.67;;;;;;;4.45;91.79;99152.41;5047248;28;20026;-66
2024/02/25 01:13:00;;;;;;;1.83;1.73;;;;;;;4.39;92.31;99160.16;5046010;28;20056;-67
2024/02/25 01:15:25;;;;;;;1.73;1.63;;;;;;;4.29;92.04;99148.16;5047205;28;20029;-66
2024/02/25 01:17:50;;;;;;;1.13;1.10;;;;;;;4.24;91.64;99157.59;5045843;28;20473;-66
2024/02/25 01:20:16;;;;;;;1.17;1.08;;;;;;;4.20;91.72;99159.34;5047243;28;20017;-66
2024/02/25 01:22:41;;;;;;;0.70;0.70;;;;;;;4.15;91.41;99155.91;5047269;28;20101;-66
2024/02/25 01:25:07;;;;;;;1.75;1.08;;;;;;;4.12;91.14;99155.94;5046823;28;20079;-65
2024/02/25 01:27:32;;;;;;;2.00;1.65;;;;;;;4.01;91.47;99161.09;5047133;28;20034;-66
2024/02/25 01:29:58;;;;;;;2.00;1.50;;;;;;;3.98;91.93;99146.53;5047308;28;20022;-69
2024/02/25 01:32:23;;;;;;;2.25;1.83;;;;;;;3.88;91.72;99149.97;5047920;28;20072;-69
2024/02/25 01:34:50;;;;;;;1.15;0.82;;;;;;;3.83;92.21;99155.13;5046625;28;20022;-69
2024/02/25 01:37:15;;;;;;;1.17;1.08;;;;;;;3.86;91.58;99143.97;5045581;28;20021;-68
2024/02/25 01:39:41;;;;;;;0.70;0.70;;;;;;;3.80;91.44;99152.56;5047150;28;20039;-68
2024/02/25 01:42:07;;;;;;;1.42;1.15;;;;;;;3.58;92.29;99135.44;5047551;28;20096;-69
2024/02/25 01:44:36;;;;;;;1.10;1.05;;;;;;;3.50;92.32;99136.31;5045381;28;20021;-69
2024/02/25 01:47:02;;;;;;;1.02;1.02;;;;;;;3.49;92.90;99137.16;5046941;28;20601;-68
2024/02/25 01:49:27;;;;;;;1.05;0.90;;;;;;;3.43;92.95;99141.44;5046990;28;20030;-69
2024/02/25 01:51:53;;;;;;;4.88;2.05;;;;;;;3.41;92.80;99148.28;5046784;28;20034;-68
2024/02/25 01:54:18;;;;;;;1.58;1.48;;;;;;;3.38;92.83;99148.28;5046460;28;20017;-68
2024/02/25 01:56:44;;;;;;;0.75;0.75;;;;;;;3.37;92.85;99143.97;5046133;28;20034;-68
2024/02/25 01:59:12;;;;;;;2.50;1.50;;;;;;;3.32;93.11;99138.03;5046774;28;20033;-68
2024/02/25 02:01:38;;;;;;;0.93;0.93;;;;;;;3.32;93.37;99145.72;5046656;28;20127;-67
2024/02/25 02:04:03;;;;;;;0.70;0.70;;;;;;;3.38;93.67;99155.97;5046432;28;20126;-68
2024/02/25 02:06:32;;;;;;;0.70;0.70;;;;;;;3.35;93.96;99153.41;5045056;28;20071;-68
2024/02/25 02:08:59;;;;;;;1.35;1.15;;;;;;;3.39;94.04;99152.53;5045043;28;20021;-69
2024/02/25 02:11:26;;;;;;;2.13;2.03;;;;;;;3.29;94.61;99153.41;5044612;28;20018;-68
2024/02/25 02:13:53;;;;;;;11.20;2.17;;;;;;;3.29;95.17;99149.13;5044976;28;20052;-69
2024/02/25 02:16:18;;;;;;;1.38;1.00;;;;;;;3.33;95.04;99149.97;5046406;28;20056;-67
2024/02/25 02:18:46;;;;;;;1.70;1.60;;;;;;;3.40;95.38;99150.84;5044799;28;20025;-68
2024/02/25 02:21:15;;;;;;;1.25;1.15;;;;;;;3.39;95.47;99151.69;5046347;28;20025;-68
2024/02/25 02:23:40;;;;;;;2.65;2.22;;;;;;;3.41;95.37;99148.28;5046203;28;20049;-69
2024/02/25 02:26:06;;;;;;;3.35;2.10;;;;;;;3.40;95.80;99150.84;5045900;28;20087;-68
2024/02/25 02:28:32;;;;;;;2.25;2.05;;;;;;;3.40;96.14;99154.28;5045780;28;20025;-68
2024/02/25 02:30:57;;;;;;;1.88;1.45;;;;;;;3.46;96.04;99150.84;5046194;28;20084;-68
2024/02/25 02:33:22;;;;;;;0.50;0.50;;;;;;;3.43;96.02;99151.72;5046039;28;20092;-68
2024/02/25 02:35:50;;;;;;;0.85;0.85;;;;;;;3.47;96.18;99158.53;5044642;28;20047;-68
2024/02/25 02:38:15;;;;;;;4.68;1.98;;;;;;;3.45;95.87;99149.97;5045835;28;20036;-67
2024/02/25 02:40:41;;;;;;;1.20;1.20;;;;;;;3.47;95.97;99150.84;5044081;28;20022;-67
2024/02/25 02:43:07;;;;;;;2.33;1.83;;;;;;;3.36;96.25;99157.69;5046042;28;20028;-68
2024/02/25 02:45:32;;;;;;;4.97;1.55;;;;;;;3.31;96.99;99160.25;5044299;28;20116;-68
2024/02/25 02:47:58;;;;;;;1.27;1.08;;;;;;;3.32;97.04;99153.41;5045785;28;20021;-68
2024/02/25 02:50:23;;;;;;;1.95;1.83;;;;;;;3.30;96.99;99162.81;5045724;28;20037;-69
2024/02/25 02:52:49;;;;;;;1.27;0.70;;;;;;;3.29;97.29;99159.38;5045603;28;20025;-68
2024/02/25 02:55:14;;;;;;;0.50;0.50;;;;;;;3.31;97.08;99161.94;5045320;28;20040;-68
2024/02/25 02:57:40;;;;;;;1.48;1.38;;;;;;;3.22;97.28;99155.09;5044106;28;20033;-67
2024/02/25 03:00:06;;;;;;;0.60;0.60;;;;;;;3.28;97.28;99167.94;5045753;28;20032;-68
2024/02/25 03:02:33;;;;;;;0.60;0.60;;;;;;;3.24;97.29;99162.81;5045402;28;20032;-68
2024/02/25 03:04:58;;;;;;;0.88;0.88;;;;;;;3.24;97.55;99163.66;5045500;28;20027;-68
2024/02/25 03:07:24;;;;;;;0.82;0.82;;;;;;;3.27;97.35;99165.38;5045322;28;20017;-68
2024/02/25 03:09:49;;;;;;;1.27;1.17;;;;;;;3.24;97.53;99157.66;5045245;28;20017;-69
2024/02/25 03:12:15;;;;;;;1.17;1.08;;;;;;;3.31;97.56;99172.19;5045475;28;20025;-68
2024/02/25 03:14:43;;;;;;;0.50;0.50;;;;;;;3.25;97.61;99164.50;5045328;28;20021;-68
2024/02/25 03:17:08;;;;;;;0.80;0.80;;;;;;;3.31;97.78;99172.19;5043645;28;20029;-68
2024/02/25 03:19:34;;;;;;;1.65;1.35;;;;;;;3.28;97.89;99182.47;5045371;28;20033;-68
2024/02/25 03:21:59;;;;;;;0.60;0.60;;;;;;;3.26;97.77;99182.47;5043888;28;20024;-67
2024/02/25 03:24:24;;;;;;;1.02;1.02;;;;;;;3.24;98.13;99180.75;5043793;28;20032;-68
2024/02/25 03:26:51;;;;;;;0.95;0.95;;;;;;;3.16;98.47;99186.75;5044878;28;20053;-68
2024/02/25 03:29:17;;;;;;;0.88;0.85;;;;;;;3.10;98.50;99189.25;5045334;28;20045;-67
2024/02/25 03:31:42;;;;;;;0.70;0.70;;;;;;;3.13;98.52;99173.88;5045117;28;20017;-67
2024/02/25 03:34:08;;;;;;;0.60;0.60;;;;;;;3.09;98.44;99180.72;5043843;28;20013;-68
2024/02/25 03:36:33;;;;;;;0.60;0.60;;;;;;;3.02;98.61;99180.72;5043613;28;20025;-67
2024/02/25 03:38:58;;;;;;;0.57;0.57;;;;;;;3.01;98.78;99173.84;5045111;28;20029;-67
2024/02/25 03:41:24;;;;;;;0.98;0.98;;;;;;;3.03;98.93;99167.91;5047529;28;20025;-67
2024/02/25 03:43:49;;;;;;;1.95;1.85;;;;;;;3.02;98.86;99181.56;5049141;28;20025;-68
2024/02/25 03:46:15;;;;;;;0.50;0.50;;;;;;;3.03;98.80;99187.53;5048985;28;20018;-67
2024/02/25 03:48:40;;;;;;;0.52;0.52;;;;;;;3.03;98.92;99178.16;5047673;28;20030;-67
2024/02/25 03:51:05;;;;;;;1.50;1.40;;;;;;;3.02;98.90;99175.59;5049235;28;20033;-67
2024/02/25 03:53:31;;;;;;;0.75;0.75;;;;;;;3.06;99.10;99178.16;5049062;28;20077;-68
2024/02/25 03:55:56;;;;;;;3.00;1.50;;;;;;;3.05;99.29;99178.16;5047176;28;20076;-67
2024/02/25 03:58:21;;;;;;;9.48;2.95;;;;;;;3.10;99.28;99182.44;5049048;28;20029;-67
2024/02/25 04:00:46;;;;;;;0.80;0.80;;;;;;;3.11;99.25;99185.88;5048959;28;20025;-67
2024/02/25 04:03:12;;;;;;;0.60;0.60;;;;;;;3.13;99.10;99186.69;5048759;28;20033;-68
2024/02/25 04:05:37;;;;;;;0.68;0.68;;;;;;;3.13;98.96;99186.69;5047559;28;20033;-68
2024/02/25 04:08:03;;;;;;;1.02;0.95;;;;;;;3.14;99.16;99185.88;5048866;28;20431;-67
2024/02/25 04:10:28;;;;;;;0.75;0.75;;;;;;;3.15;99.40;99182.44;5048471;28;20021;-67
2024/02/25 04:12:54;;;;;;;1.30;1.20;;;;;;;3.22;99.79;99191.88;5048777;28;20049;-67
2024/02/25 04:15:19;;;;;;;2.05;1.50;;;;;;;3.17;99.79;99185.88;5047122;28;20032;-67
2024/02/25 04:17:44;;;;;;;0.82;0.82;;;;;;;3.18;99.89;99181.63;5047279;28;20022;-67
2024/02/25 04:20:10;;;;;;;2.75;2.55;;;;;;;3.23;99.93;99190.16;5047249;28;20082;-67
2024/02/25 04:22:35;;;;;;;3.80;1.73;;;;;;;3.27;99.86;99191.03;5048466;28;20040;-68
2024/02/25 04:25:01;;;;;;;2.40;2.03;;;;;;;3.28;99.92;99185.91;5048208;28;20493;-66
2024/02/25 04:27:26;;;;;;;4.50;2.17;;;;;;;3.30;100.00;99183.31;5048497;28;20072;-68
2024/02/25 04:29:52;;;;;;;3.03;1.52;;;;;;;3.29;100.00;99184.19;5047241;28;20489;-67
2024/02/25 04:32:17;;;;;;;5.30;2.60;;;;;;;3.35;100.00;99184.19;5048351;28;20022;-67
2024/02/25 04:34:43;;;;;;;1.92;1.15;;;;;;;3.39;100.00;99179.91;5048456;28;20116;-67
2024/02/25 04:37:08;;;;;;;1.80;1.67;;;;;;;3.36;100.00;99180.78;5048033;28;20037;-66
2024/02/25 04:39:38;;;;;;;4.15;3.47;;;;;;;3.38;100.00;99189.34;5048445;28;20029;-67
2024/02/25 04:42:07;;;;;;;1.85;1.70;;;;;;;3.43;100.00;99182.50;5048124;28;20032;-67
2024/02/25 04:44:33;;;;;;;2.83;2.40;;;;;;;3.47;100.00;99181.66;5046564;28;20029;-67
2024/02/25 04:46:59;;;;;;;1.90;1.80;;;;;;;3.43;100.00;99181.63;5047948;28;20029;-67
2024/02/25 04:49:25;;;;;;;1.48;1.30;;;;;;;3.50;100.00;99188.47;5048195;28;20061;-68
2024/02/25 04:51:50;;;;;;;5.25;2.22;;;;;;;3.46;100.00;99182.50;5047797;28;20025;-66
2024/02/25 04:54:16;;;;;;;2.20;2.08;;;;;;;3.45;100.00;99198.75;5048058;28;20397;-68
2024/02/25 04:56:42;;;;;;;1.30;1.20;;;;;;;3.46;100.00;99187.63;5047554;28;20068;-69
2024/02/25 04:59:08;;;;;;;6.55;2.53;;;;;;;3.44;100.00;99179.06;5046730;28;20037;-67
2024/02/25 05:01:34;;;;;;;1.50;1.40;;;;;;;3.45;100.00;99195.34;5046475;28;20029;-67
2024/02/25 05:04:00;;;;;;;2.65;1.58;;;;;;;3.40;99.53;99192.75;5046279;28;20166;-67
2024/02/25 05:06:25;;;;;;;5.32;2.60;;;;;;;3.39;99.88;99195.31;5046441;28;20037;-67
2024/02/25 05:08:50;;;;;;;1.13;1.02;;;;;;;3.37;100.00;99195.31;5046282;28;20017;-67
2024/02/25 05:11:16;;;;;;;4.63;3.33;;;;;;;3.37;100.00;99191.91;5045926;28;20028;-67
2024/02/25 05:13:42;;;;;;;3.00;1.73;;;;;;;3.42;100.00;99191.03;5047744;28;20073;-68
2024/02/25 05:16:08;;;;;;;2.28;2.08;;;;;;;3.42;100.00;99187.63;5045808;28;20093;-67
2024/02/25 05:18:33;;;;;;;6.43;3.58;;;;;;;3.42;100.00;99197.91;5047189;28;20029;-67
2024/02/25 05:21:01;;;;;;;10.05;2.63;;;;;;;3.46;100.00;99205.59;5047500;28;20030;-68
2024/02/25 05:23:27;;;;;;;2.45;1.50;;;;;;;3.41;100.00;99202.16;5047367;28;20036;-68
2024/02/25 05:25:52;;;;;;;9.25;2.80;;;;;;;3.45;100.00;99198.75;5047260;28;20041;-67
2024/02/25 05:28:17;;;;;;;7.93;2.65;;;;;;;3.44;100.00;99201.31;5045787;28;20021;-67
2024/02/25 05:30:43;;;;;;;2.42;2.22;;;;;;;3.47;100.00;99209.00;5047314;28;20032;-67
2024/02/25 05:33:08;;;;;;;6.95;2.72;;;;;;;3.39;100.00;99201.28;5047258;28;20025;-67
2024/02/25 05:35:36;;;;;;;2.95;2.03;;;;;;;3.42;100.00;99214.13;5047254;28;20017;-67
2024/02/25 05:38:01;;;;;;;2.80;2.53;;;;;;;3.47;100.00;99209.88;5047679;28;20025;-67
2024/02/25 05:40:26;;;;;;;4.82;3.33;;;;;;;3.42;100.00;99203.88;5047037;28;20029;-67
2024/02/25 05:42:52;;;;;;;4.82;3.40;;;;;;;3.48;100.00;99210.72;5047357;28;20405;-68
2024/02/25 05:45:18;;;;;;;3.30;2.92;;;;;;;3.45;100.00;99215.88;5046970;28;20052;-68
2024/02/25 05:47:44;;;;;;;2.22;1.52;;;;;;;3.47;100.00;99219.25;5046066;28;20048;-66
2024/02/25 05:50:09;;;;;;;6.65;3.78;;;;;;;3.44;100.00;99206.44;5047158;28;20022;-67
2024/02/25 05:52:35;;;;;;;4.60;2.72;;;;;;;3.45;100.00;99221.84;5046905;28;20363;-67
2024/02/25 05:55:00;;;;;;;4.22;2.85;;;;;;;3.43;100.00;99220.13;5046414;28;20402;-65
2024/02/25 05:57:26;;;;;;;2.92;2.50;;;;;;;3.41;100.00;99232.94;5046744;28;20738;-67
2024/02/25 05:59:51;;;;;;;2.50;2.28;;;;;;;3.43;100.00;99222.69;5046783;28;20052;-67
2024/02/25 06:02:17;;;;;;;7.80;3.28;;;;;;;3.45;100.00;99223.56;5046567;28;20061;-67
2024/02/25 06:04:42;;;;;;;4.82;2.60;;;;;;;3.45;100.00;99229.53;5044495;28;20055;-67
2024/02/25 06:07:07;;;;;;;2.97;2.08;;;;;;;3.38;100.00;99230.38;5046295;28;20025;-66
2024/02/25 06:09:33;;;;;;;6.07;2.45;;;;;;;3.50;100.00;99232.09;5046676;28;20040;-67
2024/02/25 06:12:03;;;;;;;4.07;2.47;;;;;;;3.42;100.00;99232.09;5046405;28;20021;-67
2024/02/25 06:14:28;;;;;;;2.42;1.85;;;;;;;3.46;100.00;99233.81;5046468;28;20025;-68
2024/02/25 06:16:54;;;;;;;2.33;1.58;;;;;;;3.54;100.00;99240.66;5045032;28;20117;-67
2024/02/25 06:19:19;;;;;;;5.70;3.38;;;;;;;3.45;100.00;99236.41;5045123;28;20030;-67
2024/02/25 06:21:45;;;;;;;4.57;2.00;;;;;;;3.58;100.00;99242.38;5046233;28;20040;-67
2024/02/25 06:24:10;;;;;;;2.55;2.35;;;;;;;3.64;99.19;99237.28;5044984;28;20026;-68
2024/02/25 06:26:36;;;;;;;4.30;2.50;;;;;;;3.50;100.00;99238.97;5045928;28;20025;-68
2024/02/25 06:29:02;;;;;;;6.53;3.20;;;;;;;3.51;100.00;99245.78;5044937;28;20021;-68
2024/02/25 06:31:31;;;;;;;2.50;2.10;;;;;;;3.47;100.00;99245.78;5046351;28;20087;-67
2024/02/25 06:33:57;;;;;;;2.35;1.90;;;;;;;3.49;100.00;99239.78;5046223;28;20406;-68
2024/02/25 06:36:22;;;;;;;1.25;1.15;;;;;;;3.48;100.00;99244.09;5046061;28;20021;-68
2024/02/25 06:38:47;;;;;;;4.15;2.47;;;;;;;3.52;100.00;99248.38;5045988;28;20037;-67
2024/02/25 06:41:20;;;;;;;3.22;2.85;;;;;;;3.54;100.00;99251.81;5045925;28;20021;-68
2024/02/25 06:43:45;;;;;;;1.60;1.50;;;;;;;3.49;100.00;99237.22;5044596;28;20017;-68
2024/02/25 06:46:11;;;;;;;3.92;3.58;;;;;;;3.54;100.00;99259.50;5044448;28;20389;-68
2024/02/25 06:48:36;;;;;;;13.30;3.30;;;;;;;3.51;100.00;99250.94;5045748;28;20025;-69
2024/02/25 06:51:02;;;;;;;7.55;3.15;;;;;;;3.49;100.00;99247.50;5046004;28;20037;-69
2024/02/25 06:53:27;;;;;;;6.35;4.32;;;;;;;3.52;100.00;99257.75;5045849;28;20025;-69
2024/02/25 06:55:52;;;;;;;3.28;2.95;;;;;;;3.56;100.00;99254.38;5045457;28;20272;-67
2024/02/25 06:58:18;;;;;;;4.13;3.65;;;;;;;3.57;100.00;99254.38;5045719;28;20377;-69
2024/02/25 07:00:43;;;;;;;4.75;3.13;;;;;;;3.62;100.00;99258.66;5044437;28;20059;-68
2024/02/25 07:03:08;;;;;;;7.68;2.95;;;;;;;3.66;100.00;99261.22;5045676;28;20025;-68
2024/02/25 07:05:34;;;;;;;9.32;2.80;;;;;;;3.58;100.00;99252.63;5045507;28;20035;-68
2024/02/25 07:07:59;;;;;;;2.80;1.80;;;;;;;3.60;100.00;99250.94;5045435;28;20533;-67
2024/02/25 07:10:24;;;;;;;3.00;2.60;;;;;;;3.47;100.00;99238.09;5045372;28;20091;-67
2024/02/25 07:12:50;;;;;;;2.53;2.05;;;;;;;3.71;100.00;99266.34;5045573;28;20121;-67
2024/02/25 07:15:15;;;;;;;8.15;3.28;;;;;;;3.64;100.00;99262.06;5045392;28;20021;-68
2024/02/25 07:17:41;;;;;;;3.88;2.80;;;;;;;3.62;100.00;99263.78;5045707;28;20028;-68
2024/02/25 07:20:07;;;;;;;2.28;2.10;;;;;;;3.71;100.00;99272.34;5044276;28;20028;-67
2024/02/25 07:22:32;;;;;;;3.95;2.85;;;;;;;3.65;100.00;99259.50;5043820;28;20083;-68
2024/02/25 07:24:58;;;;;;;10.25;3.08;;;;;;;3.68;100.00;99267.22;5044212;28;20036;-67
2024/02/25 07:27:23;;;;;;;5.40;2.40;;;;;;;3.72;100.00;99261.22;5043408;28;20033;-67
2024/02/25 07:29:48;;;;;;;1.27;1.17;;;;;;;3.79;98.94;99258.66;5045612;28;20385;-66
2024/02/25 07:32:14;;;;;;;1.33;1.02;;;;;;;3.64;98.38;99283.47;5045230;28;20021;-66
2024/02/25 07:34:42;;;;;;;0.70;0.70;;;;;;;3.41;99.36;99273.13;5043816;28;20028;-66
2024/02/25 07:37:07;;;;;;;0.60;0.60;;;;;;;3.28;99.68;99277.38;5045238;28;20032;-66
2024/02/25 07:39:33;;;;;;;3.53;1.90;;;;;;;3.14;100.00;99285.91;5045193;28;20029;-67
2024/02/25 07:41:58;;;;;;;0.50;0.50;;;;;;;3.12;100.00;99279.91;5045022;28;20025;-66
2024/02/25 07:44:23;;;;;;;0.90;0.90;;;;;;;3.10;100.00;99281.59;5045035;28;20030;-68
2024/02/25 07:46:48;;;;;;;0.70;0.70;;;;;;;2.95;100.00;99285.81;5044944;28;20418;-66
2024/02/25 07:49:14;;;;;;;0.80;0.80;;;;;;;2.80;100.00;99268.66;5045240;28;20017;-67
2024/02/25 07:51:39;;;;;;;0.50;0.50;;;;;;;2.94;100.00;99303.78;5045441;28;20158;-66
2024/02/25 07:54:05;;;;;;;1.27;1.17;;;;;;;2.89;100.00;99306.28;5044971;28;20049;-67
2024/02/25 07:56:30;;;;;;;0.70;0.70;;;;;;;2.87;100.00;99300.31;5043339;28;20266;-66
2024/02/25 07:58:56;;;;;;;0.80;0.80;;;;;;;2.78;100.00;99297.69;5044897;28;20025;-66
2024/02/25 08:01:21;;;;;;;0.50;0.50;;;;;;;2.78;100.00;99306.22;5043592;28;20032;-66
2024/02/25 08:03:46;;;;;;;0.50;0.50;;;;;;;2.80;100.00;99307.09;5044966;28;20053;-67
2024/02/25 08:06:12;;;;;;;0.85;0.85;;;;;;;2.76;100.00;99307.94;5045046;28;20029;-66
2024/02/25 08:08:38;;;;;;;0.50;0.50;;;;;;;2.81;100.00;99308.81;5044895;28;20105;-66
2024/02/25 08:11:03;;;;;;;0.50;0.50;;;;;;;2.81;100.00;99311.38;5044749;28;20094;-65
2024/02/25 08:13:29;;;;;;;0.60;0.60;;;;;;;2.84;100.00;99313.94;5043826;28;20032;-66
2024/02/25 08:15:54;;;;;;;0.68;0.68;;;;;;;2.87;100.00;99313.13;5044433;28;20029;-66
2024/02/25 08:18:20;;;;;;;1.23;1.13;;;;;;;2.85;100.00;99315.69;5044921;28;20025;-65
2024/02/25 08:20:45;;;;;;;0.50;0.50;;;;;;;2.82;100.00;99317.34;5044965;28;20026;-65
2024/02/25 08:23:10;;;;;;;0.85;0.82;;;;;;;2.88;100.00;99322.53;5044624;28;20143;-65
2024/02/25 08:25:36;;;;;;;1.00;0.93;;;;;;;2.92;100.00;99329.41;5044512;28;20537;-64
2024/02/25 08:28:01;;;;;;;0.60;0.60;;;;;;;2.93;100.00;99320.84;5046685;28;20021;-65
2024/02/25 08:30:26;;;;;;;0.77;0.77;;;;;;;3.00;100.00;99331.13;5048508;28;20026;-65
2024/02/25 08:32:53;;;;;;;1.02;0.60;;;;;;;3.00;100.00;99333.69;5048170;28;20100;-66
2024/02/25 08:35:19;;;;;;;4.55;1.83;;;;;;;3.00;100.00;99337.13;5048417;28;20024;-65
2024/02/25 08:37:46;;;;;;;0.63;0.63;;;;;;;2.99;100.00;99334.56;5048176;28;20025;-65
2024/02/25 08:40:12;;;;;;;17.55;1.67;;;;;;;3.08;100.00;99345.69;5048194;28;20040;-65
2024/02/25 08:42:37;;;;;;;0.60;0.60;;;;;;;3.12;100.00;99340.56;5048274;28;20169;-64
2024/02/25 08:45:03;;;;;;;2.78;1.20;;;;;;;3.14;100.00;99339.75;5046663;28;20230;-65
2024/02/25 08:47:29;;;;;;;6.15;1.85;;;;;;;3.19;100.00;99347.47;5047954;28;20026;-64
2024/02/25 08:49:54;;;;;;;1.98;1.85;;;;;;;3.21;100.00;99345.78;5048084;28;20477;-66
2024/02/25 08:52:19;;;;;;;0.55;0.55;;;;;;;3.18;100.00;99341.47;5048118;28;20052;-66
2024/02/25 08:54:45;;;;;;;0.50;0.50;;;;;;;3.24;100.00;99350.06;5047873;28;20052;-66
2024/02/25 08:57:12;;;;;;;0.70;0.70;;;;;;;3.24;100.00;99355.19;5047718;28;20033;-66
2024/02/25 08:59:37;;;;;;;1.00;0.93;;;;;;;3.25;100.00;99355.19;5046426;28;20029;-66
2024/02/25 09:02:04;;;;;;;1.08;1.02;;;;;;;3.20;100.00;99355.16;5048041;28;20101;-66
2024/02/25 09:04:30;;;;;;;0.60;0.60;;;;;;;3.26;100.00;99361.19;5047907;28;20025;-66
2024/02/25 09:06:57;;;;;;;1.13;0.95;;;;;;;3.19;100.00;99352.59;5046297;28;20017;-66
2024/02/25 09:09:23;;;;;;;1.33;1.23;;;;;;;3.26;100.00;99369.72;5047571;28;20025;-65
2024/02/25 09:11:48;;;;;;;2.10;1.17;;;;;;;3.31;100.00;99367.19;5045902;28;20365;-66
2024/02/25 09:14:14;;;;;;;0.90;0.90;;;;;;;3.33;100.00;99360.34;5047517;28;20032;-65
2024/02/25 09:16:39;;;;;;;0.68;0.68;;;;;;;3.40;100.00;99374.06;5047522;28;20026;-66
2024/02/25 09:19:04;;;;;;;2.42;1.58;;;;;;;3.39;100.00;99370.63;5047387;28;20028;-65
2024/02/25 09:21:32;;;;;;;2.10;1.55;;;;;;;3.44;100.00;99368.97;5047637;28;20021;-66
2024/02/25 09:23:58;;;;;;;7.20;1.35;;;;;;;3.49;100.00;99373.25;5047444;28;20029;-66
2024/02/25 09:26:23;;;;;;;1.63;1.42;;;;;;;3.49;100.00;99362.97;5047024;28;20257;-65
2024/02/25 09:28:49;;;;;;;0.73;0.73;;;;;;;3.53;100.00;99369.84;5047353;28;20021;-65
2024/02/25 09:31:20;;;;;;;2.20;2.00;;;;;;;3.46;100.00;99362.13;5047404;28;20033;-65
2024/02/25 09:33:46;;;;;;;;;;;;;;;3.61;100.00;99380.16;5047644;28;20017;-65
2024/02/25 09:36:11;;;;;;;1.35;1.25;;;;;;;3.55;100.00;99375.81;5045793;28;19909;-65
2024/02/25 09:38:37;;;;;;;0.50;0.50;;;;;;;3.56;100.00;99378.41;5045904;28;20060;-65
2024/02/25 09:41:04;;;;;;;5.68;1.10;;;;;;;3.58;100.00;99383.53;5045492;28;20025;-65
2024/02/25 09:43:30;;;;;;;6.25;3.10;;;;;;;3.59;100.00;99391.25;5047080;28;20032;-64
2024/02/25 09:45:56;;;;;;;2.40;1.73;;;;;;;3.60;100.00;99384.41;5046908;28;20068;-65
2024/02/25 09:48:24;;;;;;;5.28;1.75;;;;;;;3.58;100.00;99392.09;5045439;28;20030;-64
2024/02/25 09:50:50;;;;;;;2.20;2.08;;;;;;;3.68;100.00;99392.13;5046951;28;20025;-64
2024/02/25 09:53:15;;;;;;;3.22;3.03;;;;;;;3.66;100.00;99393.84;5046808;28;20049;-64
2024/02/25 09:55:44;;;;;;;4.10;1.45;;;;;;;3.67;100.00;99401.56;5045006;28;20044;-64
2024/02/25 09:58:09;;;;;;;1.48;1.38;;;;;;;3.62;100.00;99402.38;5046572;28;20025;-64
2024/02/25 10:00:35;;;;;;;8.15;4.13;;;;;;;3.52;100.00;99394.66;5046784;28;20030;-65
2024/02/25 10:03:01;;;;;;;1.60;1.35;;;;;;;3.68;100.00;99407.53;5045142;28;20453;-64
2024/02/25 10:05:26;;;;;;;5.45;4.28;;;;;;;3.75;100.00;99418.69;5046632;28;20057;-64
2024/02/25 10:08:10;;;;;;;5.15;4.40;;;;;;;3.81;100.00;99423.84;5046521;28;20085;-64
2024/02/25 10:10:36;;;;;;;3.03;2.55;;;;;;;3.77;100.00;99412.69;5044560;28;20060;-65
2024/02/25 10:13:03;;;;;;;2.50;2.10;;;;;;;3.81;100.00;99432.41;5045064;28;20377;-65
2024/02/25 10:15:29;;;;;;;2.38;2.17;;;;;;;3.79;100.00;99436.69;5046341;28;20037;-64
2024/02/25 10:17:54;;;;;;;6.00;3.05;;;;;;;3.74;100.00;99440.94;5046306;28;20025;-64
2024/02/25 10:20:20;;;;;;;4.88;2.35;;;;;;;3.74;100.00;99425.53;5046401;28;20021;-65
2024/02/25 10:22:45;;;;;;;5.82;3.35;;;;;;;3.71;100.00;99423.81;5046317;28;20036;-65
2024/02/25 10:25:11;;;;;;;11.73;5.40;;;;;;;3.70;100.00;99441.78;5046247;28;20022;-64
2024/02/25 10:27:36;;;;;;;2.55;1.27;;;;;;;3.70;100.00;99441.78;5044440;28;20032;-64
2024/02/25 10:30:05;;;;;;;3.13;2.05;;;;;;;3.71;100.00;99435.78;5046151;28;20037;-65
2024/02/25 10:32:32;;;;;;;1.50;1.40;;;;;;;3.73;100.00;99444.34;5046183;28;20104;-64
2024/02/25 10:34:59;;;;;;;3.20;2.75;;;;;;;3.78;100.00;99445.25;5044776;28;20053;-65
2024/02/25 10:37:26;;;;;;;2.28;1.35;;;;;;;3.79;100.00;99449.50;5045997;28;20029;-64
2024/02/25 10:39:57;;;;;;;5.88;4.60;;;;;;;3.77;100.00;99450.38;5046378;28;20369;-64
2024/02/25 10:42:31;;;;;;;3.50;3.20;;;;;;;3.77;100.00;99458.06;5045791;28;20025;-64
2024/02/25 10:44:58;;;;;;;29.58;4.80;;;;;;;3.81;100.00;99454.66;5045634;28;20386;-63
2024/02/25 10:47:25;;;;;;;11.65;3.30;;;;;;;3.84;100.00;99450.41;5045951;28;20081;-63
2024/02/25 10:49:52;;;;;;;7.75;4.03;;;;;;;3.91;100.00;99448.72;5045590;28;20028;-64
2024/02/25 10:52:19;;;;;;;1.40;1.30;;;;;;;3.94;100.00;99451.28;5045760;28;20025;-64
2024/02/25 10:54:48;;;;;;;3.60;3.30;;;;;;;4.03;100.00;99449.59;5045575;28;20112;-66
2024/02/25 10:57:15;;;;;;;13.95;3.67;;;;;;;4.13;100.00;99464.19;5044162;28;20113;-64
2024/02/25 10:59:42;;;;;;;3.13;2.20;;;;;;;4.12;100.00;99446.19;5045638;28;20061;-65
2024/02/25 11:02:10;;;;;;;4.63;4.18;;;;;;;4.07;100.00;99449.59;5045657;28;20052;-64
2024/02/25 11:04:36;;;;;;;11.43;4.60;;;;;;;4.13;100.00;99455.59;5045517;28;20489;-65
2024/02/25 11:07:05;;;;;;;4.45;2.80;;;;;;;4.07;100.00;99449.59;5045565;28;20029;-65
2024/02/25 11:09:32;;;;;;;2.88;2.60;;;;;;;4.11;100.00;99462.44;5045484;28;20076;-66
2024/02/25 11:12:24;;;;;;;7.40;4.82;;;;;;;4.18;100.00;99454.78;5045297;28;20036;-65
2024/02/25 11:14:50;;;;;;;;;;;;;;;4.26;100.00;99452.22;5045732;28;20056;-64
2024/02/25 11:17:19;;;;;;;4.28;1.52;;;;;;;4.28;100.00;99444.53;5045418;28;19908;-65
2024/02/25 11:20:09;;;;;;;6.82;4.78;;;;;;;4.42;100.00;99453.13;5045397;28;20021;-65
2024/02/25 11:22:37;;;;;;;5.57;2.83;;;;;;;4.45;100.00;99462.53;5045336;28;20033;-65
2024/02/25 11:25:02;;;;;;;10.95;4.43;;;;;;;4.42;100.00;99447.97;5045312;28;20037;-66
2024/02/25 11:27:27;;;;;;;6.50;4.35;;;;;;;4.44;100.00;99451.38;5043608;28;20021;-66
2024/02/25 11:30:13;;;;;;;4.03;3.22;;;;;;;4.51;100.00;99459.97;5045294;28;20081;-66